sensor_id;sensor_type;location;lat;lon;timestamp;temperature;humidity
71396;DHT22;59888;55.814;37.132;2022-11-20T00:01:43;1.13;63.56
71396;DHT22;59888;55.814;37.132;2022-11-20T00:04:10;1.13;63.44
71396;DHT22;59888;55.814;37.132;2022-11-20T00:06:37;1.12;63.46
71396;DHT22;59888;55.814;37.132;2022-11-20T00:09:03;1.12;63.50
71396;DHT22;59888;55.814;37.132;2022-11-20T00:11:32;1.16;63.47
71396;DHT22;59888;55.814;37.132;2022-11-20T00:14:00;1.18;63.50
71396;DHT22;59888;55.814;37.132;2022-11-20T00:16:30;1.18;63.46
71396;DHT22;59888;55.814;37.132;2022-11-20T00:18:57;1.18;63.44
71396;DHT22;59888;55.814;37.132;2022-11-20T00:21:25;1.22;63.27
71396;DHT22;59888;55.814;37.132;2022-11-20T00:23:53;1.21;63.32
71396;DHT22;59888;55.814;37.132;2022-11-20T00:26:21;1.17;63.34
71396;DHT22;59888;55.814;37.132;2022-11-20T00:28:55;1.16;63.42
71396;DHT22;59888;55.814;37.132;2022-11-20T00:31:21;1.20;63.45
71396;DHT22;59888;55.814;37.132;2022-11-20T00:33:47;1.24;63.41
71396;DHT22;59888;55.814;37.132;2022-11-20T00:36:15;1.26;63.34
71396;DHT22;59888;55.814;37.132;2022-11-20T00:38:42;1.32;63.20
71396;DHT22;59888;55.814;37.132;2022-11-20T00:41:10;1.34;63.11
71396;DHT22;59888;55.814;37.132;2022-11-20T00:43:37;1.31;63.05
71396;DHT22;59888;55.814;37.132;2022-11-20T00:46:12;1.32;63.02
71396;DHT22;59888;55.814;37.132;2022-11-20T00:48:38;1.32;63.01
71396;DHT22;59888;55.814;37.132;2022-11-20T00:51:05;1.32;62.96
71396;DHT22;59888;55.814;37.132;2022-11-20T00:53:31;1.34;63.01
71396;DHT22;59888;55.814;37.132;2022-11-20T00:56:02;1.35;62.93
71396;DHT22;59888;55.814;37.132;2022-11-20T00:58:36;1.33;62.96
71396;DHT22;59888;55.814;37.132;2022-11-20T01:01:03;1.39;62.85
71396;DHT22;59888;55.814;37.132;2022-11-20T01:03:34;1.37;62.82
71396;DHT22;59888;55.814;37.132;2022-11-20T01:06:01;1.37;62.78
71396;DHT22;59888;55.814;37.132;2022-11-20T01:08:35;1.36;62.76
71396;DHT22;59888;55.814;37.132;2022-11-20T01:11:13;1.37;62.79
71396;DHT22;59888;55.814;37.132;2022-11-20T01:13:46;1.36;62.73
71396;DHT22;59888;55.814;37.132;2022-11-20T01:16:18;1.29;62.70
71396;DHT22;59888;55.814;37.132;2022-11-20T01:18:47;1.29;62.70
71396;DHT22;59888;55.814;37.132;2022-11-20T01:21:21;1.27;62.75
71396;DHT22;59888;55.814;37.132;2022-11-20T01:23:48;1.27;62.79
71396;DHT22;59888;55.814;37.132;2022-11-20T01:26:22;1.23;62.78
71396;DHT22;59888;55.814;37.132;2022-11-20T01:28:49;1.24;62.83
71396;DHT22;59888;55.814;37.132;2022-11-20T01:33:44;1.23;62.81
71396;DHT22;59888;55.814;37.132;2022-11-20T01:36:10;1.21;62.82
71396;DHT22;59888;55.814;37.132;2022-11-20T01:38:36;1.24;62.87
71396;DHT22;59888;55.814;37.132;2022-11-20T01:41:02;1.28;62.66
71396;DHT22;59888;55.814;37.132;2022-11-20T01:43:28;1.24;62.67
71396;DHT22;59888;55.814;37.132;2022-11-20T01:46:04;1.23;62.63
71396;DHT22;59888;55.814;37.132;2022-11-20T01:48:40;1.24;62.62
71396;DHT22;59888;55.814;37.132;2022-11-20T01:51:27;1.20;62.60
71396;DHT22;59888;55.814;37.132;2022-11-20T01:53:57;1.19;62.60
71396;DHT22;59888;55.814;37.132;2022-11-20T01:56:25;1.21;62.62
71396;DHT22;59888;55.814;37.132;2022-11-20T01:58:54;1.21;62.53
71396;DHT22;59888;55.814;37.132;2022-11-20T02:01:22;1.19;62.47
71396;DHT22;59888;55.814;37.132;2022-11-20T02:03:48;1.17;62.48
71396;DHT22;59888;55.814;37.132;2022-11-20T02:06:22;1.12;62.49
71396;DHT22;59888;55.814;37.132;2022-11-20T02:08:48;1.11;62.44
71396;DHT22;59888;55.814;37.132;2022-11-20T02:11:14;1.09;62.52
71396;DHT22;59888;55.814;37.132;2022-11-20T02:13:40;1.08;62.44
71396;DHT22;59888;55.814;37.132;2022-11-20T02:16:16;1.10;62.50
71396;DHT22;59888;55.814;37.132;2022-11-20T02:18:44;1.09;62.38
71396;DHT22;59888;55.814;37.132;2022-11-20T02:21:26;1.08;62.45
71396;DHT22;59888;55.814;37.132;2022-11-20T02:26:26;1.11;62.36
71396;DHT22;59888;55.814;37.132;2022-11-20T02:28:54;1.07;62.32
71396;DHT22;59888;55.814;37.132;2022-11-20T02:31:20;1.08;62.25
71396;DHT22;59888;55.814;37.132;2022-11-20T02:33:46;1.05;62.24
71396;DHT22;59888;55.814;37.132;2022-11-20T02:36:14;1.03;62.30
71396;DHT22;59888;55.814;37.132;2022-11-20T02:38:41;1.02;62.31
71396;DHT22;59888;55.814;37.132;2022-11-20T02:41:08;0.96;62.40
71396;DHT22;59888;55.814;37.132;2022-11-20T02:43:34;0.99;62.45
71396;DHT22;59888;55.814;37.132;2022-11-20T02:46:00;1.02;62.41
71396;DHT22;59888;55.814;37.132;2022-11-20T02:48:26;0.98;62.37
71396;DHT22;59888;55.814;37.132;2022-11-20T02:50:52;0.96;62.43
71396;DHT22;59888;55.814;37.132;2022-11-20T02:53:17;0.95;62.44
71396;DHT22;59888;55.814;37.132;2022-11-20T02:55:43;0.96;62.47
71396;DHT22;59888;55.814;37.132;2022-11-20T02:58:09;1.01;62.42
71396;DHT22;59888;55.814;37.132;2022-11-20T03:00:35;0.99;62.41
71396;DHT22;59888;55.814;37.132;2022-11-20T03:03:01;1.01;62.37
71396;DHT22;59888;55.814;37.132;2022-11-20T03:05:27;1.02;62.26
71396;DHT22;59888;55.814;37.132;2022-11-20T03:07:52;0.93;62.20
71396;DHT22;59888;55.814;37.132;2022-11-20T03:10:21;0.92;62.25
71396;DHT22;59888;55.814;37.132;2022-11-20T03:12:46;0.86;62.31
71396;DHT22;59888;55.814;37.132;2022-11-20T03:15:12;0.80;62.41
71396;DHT22;59888;55.814;37.132;2022-11-20T03:17:38;0.79;62.55
71396;DHT22;59888;55.814;37.132;2022-11-20T03:20:04;0.80;62.55
71396;DHT22;59888;55.814;37.132;2022-11-20T03:22:31;0.84;62.56
71396;DHT22;59888;55.814;37.132;2022-11-20T03:24:57;0.89;62.56
71396;DHT22;59888;55.814;37.132;2022-11-20T03:27:22;0.95;62.52
71396;DHT22;59888;55.814;37.132;2022-11-20T03:29:48;0.97;62.51
71396;DHT22;59888;55.814;37.132;2022-11-20T03:32:14;1.06;62.47
71396;DHT22;59888;55.814;37.132;2022-11-20T03:34:50;1.13;62.37
71396;DHT22;59888;55.814;37.132;2022-11-20T03:37:16;1.20;62.24
71396;DHT22;59888;55.814;37.132;2022-11-20T03:39:41;1.16;62.06
71396;DHT22;59888;55.814;37.132;2022-11-20T03:42:08;1.12;62.08
71396;DHT22;59888;55.814;37.132;2022-11-20T03:45:04;1.04;61.76
71396;DHT22;59888;55.814;37.132;2022-11-20T03:47:30;0.89;61.86
71396;DHT22;59888;55.814;37.132;2022-11-20T03:49:56;0.86;62.05
71396;DHT22;59888;55.814;37.132;2022-11-20T03:52:22;0.81;62.13
71396;DHT22;59888;55.814;37.132;2022-11-20T03:54:48;0.79;62.18
71396;DHT22;59888;55.814;37.132;2022-11-20T03:57:13;0.80;62.30
71396;DHT22;59888;55.814;37.132;2022-11-20T03:59:39;0.83;62.32
71396;DHT22;59888;55.814;37.132;2022-11-20T04:02:05;0.89;62.33
71396;DHT22;59888;55.814;37.132;2022-11-20T04:04:31;0.89;62.19
71396;DHT22;59888;55.814;37.132;2022-11-20T04:06:56;0.86;62.14
71396;DHT22;59888;55.814;37.132;2022-11-20T04:09:22;0.75;62.21
71396;DHT22;59888;55.814;37.132;2022-11-20T04:11:48;0.76;62.37
71396;DHT22;59888;55.814;37.132;2022-11-20T04:14:19;0.78;62.40
71396;DHT22;59888;55.814;37.132;2022-11-20T04:16:45;0.81;62.34
71396;DHT22;59888;55.814;37.132;2022-11-20T04:19:13;0.80;62.27
71396;DHT22;59888;55.814;37.132;2022-11-20T04:21:40;0.81;62.27
71396;DHT22;59888;55.814;37.132;2022-11-20T04:24:06;0.78;62.20
71396;DHT22;59888;55.814;37.132;2022-11-20T04:26:33;0.78;62.16
71396;DHT22;59888;55.814;37.132;2022-11-20T04:28:59;0.82;62.15
71396;DHT22;59888;55.814;37.132;2022-11-20T04:31:29;0.82;61.98
71396;DHT22;59888;55.814;37.132;2022-11-20T04:33:58;0.77;62.00
71396;DHT22;59888;55.814;37.132;2022-11-20T04:36:26;0.77;62.08
71396;DHT22;59888;55.814;37.132;2022-11-20T04:39:03;0.81;62.04
71396;DHT22;59888;55.814;37.132;2022-11-20T04:41:31;0.86;61.97
71396;DHT22;59888;55.814;37.132;2022-11-20T04:43:59;0.86;61.92
71396;DHT22;59888;55.814;37.132;2022-11-20T04:46:30;0.87;61.89
71396;DHT22;59888;55.814;37.132;2022-11-20T04:48:57;0.90;61.88
71396;DHT22;59888;55.814;37.132;2022-11-20T04:51:23;0.87;61.79
71396;DHT22;59888;55.814;37.132;2022-11-20T04:53:48;0.88;61.89
71396;DHT22;59888;55.814;37.132;2022-11-20T04:56:15;0.89;61.89
71396;DHT22;59888;55.814;37.132;2022-11-20T04:58:41;0.91;61.87
71396;DHT22;59888;55.814;37.132;2022-11-20T05:01:11;0.99;61.83
71396;DHT22;59888;55.814;37.132;2022-11-20T05:03:41;1.08;61.76
71396;DHT22;59888;55.814;37.132;2022-11-20T05:06:09;1.10;61.67
71396;DHT22;59888;55.814;37.132;2022-11-20T05:08:35;1.12;61.55
71396;DHT22;59888;55.814;37.132;2022-11-20T05:11:12;1.04;61.42
71396;DHT22;59888;55.814;37.132;2022-11-20T05:13:39;0.95;61.46
71396;DHT22;59888;55.814;37.132;2022-11-20T05:16:33;0.90;61.51
71396;DHT22;59888;55.814;37.132;2022-11-20T05:18:59;0.83;61.72
71396;DHT22;59888;55.814;37.132;2022-11-20T05:21:25;0.83;61.79
71396;DHT22;59888;55.814;37.132;2022-11-20T05:23:51;0.83;61.83
71396;DHT22;59888;55.814;37.132;2022-11-20T05:26:21;0.89;61.83
71396;DHT22;59888;55.814;37.132;2022-11-20T05:28:47;0.92;61.82
71396;DHT22;59888;55.814;37.132;2022-11-20T05:31:16;0.91;61.85
71396;DHT22;59888;55.814;37.132;2022-11-20T05:33:44;0.94;61.77
71396;DHT22;59888;55.814;37.132;2022-11-20T05:36:11;0.94;61.69
71396;DHT22;59888;55.814;37.132;2022-11-20T05:38:37;0.92;61.69
71396;DHT22;59888;55.814;37.132;2022-11-20T05:41:15;0.90;61.73
71396;DHT22;59888;55.814;37.132;2022-11-20T05:43:42;0.88;61.82
71396;DHT22;59888;55.814;37.132;2022-11-20T05:46:11;0.89;61.89
71396;DHT22;59888;55.814;37.132;2022-11-20T05:48:38;0.92;61.83
71396;DHT22;59888;55.814;37.132;2022-11-20T05:51:05;0.90;61.88
71396;DHT22;59888;55.814;37.132;2022-11-20T05:53:35;0.94;61.84
71396;DHT22;59888;55.814;37.132;2022-11-20T05:56:04;0.95;61.87
71396;DHT22;59888;55.814;37.132;2022-11-20T05:58:31;0.99;61.82
71396;DHT22;59888;55.814;37.132;2022-11-20T06:01:11;1.02;61.80
71396;DHT22;59888;55.814;37.132;2022-11-20T06:03:37;1.01;61.76
71396;DHT22;59888;55.814;37.132;2022-11-20T06:06:04;1.03;61.76
71396;DHT22;59888;55.814;37.132;2022-11-20T06:08:31;1.06;61.72
71396;DHT22;59888;55.814;37.132;2022-11-20T06:10:57;1.10;61.71
71396;DHT22;59888;55.814;37.132;2022-11-20T06:13:23;1.12;61.65
71396;DHT22;59888;55.814;37.132;2022-11-20T06:15:53;1.20;61.55
71396;DHT22;59888;55.814;37.132;2022-11-20T06:18:19;1.19;61.41
71396;DHT22;59888;55.814;37.132;2022-11-20T06:20:46;1.20;61.43
71396;DHT22;59888;55.814;37.132;2022-11-20T06:23:12;1.24;61.41
71396;DHT22;59888;55.814;37.132;2022-11-20T06:25:42;1.28;61.42
71396;DHT22;59888;55.814;37.132;2022-11-20T06:28:08;1.32;61.38
71396;DHT22;59888;55.814;37.132;2022-11-20T06:30:34;1.40;61.31
71396;DHT22;59888;55.814;37.132;2022-11-20T06:33:00;1.50;61.23
71396;DHT22;59888;55.814;37.132;2022-11-20T06:35:26;1.62;61.05
71396;DHT22;59888;55.814;37.132;2022-11-20T06:37:52;1.73;60.89
71396;DHT22;59888;55.814;37.132;2022-11-20T06:40:18;1.73;60.67
71396;DHT22;59888;55.814;37.132;2022-11-20T06:42:44;1.70;60.67
71396;DHT22;59888;55.814;37.132;2022-11-20T06:45:10;1.69;60.67
71396;DHT22;59888;55.814;37.132;2022-11-20T06:47:36;1.66;60.64
71396;DHT22;59888;55.814;37.132;2022-11-20T06:50:02;1.63;60.64
71396;DHT22;59888;55.814;37.132;2022-11-20T06:52:29;1.58;60.68
71396;DHT22;59888;55.814;37.132;2022-11-20T06:54:55;1.57;60.89
71396;DHT22;59888;55.814;37.132;2022-11-20T06:57:20;1.63;60.86
71396;DHT22;59888;55.814;37.132;2022-11-20T06:59:46;1.65;60.83
71396;DHT22;59888;55.814;37.132;2022-11-20T07:02:12;1.66;60.85
71396;DHT22;59888;55.814;37.132;2022-11-20T07:04:39;1.67;60.83
71396;DHT22;59888;55.814;37.132;2022-11-20T07:07:05;1.69;60.77
71396;DHT22;59888;55.814;37.132;2022-11-20T07:09:32;1.71;60.80
71396;DHT22;59888;55.814;37.132;2022-11-20T07:11:59;1.76;60.79
71396;DHT22;59888;55.814;37.132;2022-11-20T07:14:29;1.88;60.74
71396;DHT22;59888;55.814;37.132;2022-11-20T07:16:55;1.94;60.54
71396;DHT22;59888;55.814;37.132;2022-11-20T07:19:21;2.05;60.55
71396;DHT22;59888;55.814;37.132;2022-11-20T07:21:47;2.07;60.47
71396;DHT22;59888;55.814;37.132;2022-11-20T07:24:13;2.14;60.37
71396;DHT22;59888;55.814;37.132;2022-11-20T07:26:38;2.27;60.25
71396;DHT22;59888;55.814;37.132;2022-11-20T07:29:04;2.36;60.07
71396;DHT22;59888;55.814;37.132;2022-11-20T07:31:30;2.32;60.04
71396;DHT22;59888;55.814;37.132;2022-11-20T07:33:55;2.39;60.04
71396;DHT22;59888;55.814;37.132;2022-11-20T07:36:21;2.39;59.92
71396;DHT22;59888;55.814;37.132;2022-11-20T07:38:47;2.36;59.96
71396;DHT22;59888;55.814;37.132;2022-11-20T07:41:13;2.46;60.02
71396;DHT22;59888;55.814;37.132;2022-11-20T07:43:39;2.60;59.83
71396;DHT22;59888;55.814;37.132;2022-11-20T07:46:04;2.56;59.62
71396;DHT22;59888;55.814;37.132;2022-11-20T07:48:30;2.59;59.72
71396;DHT22;59888;55.814;37.132;2022-11-20T07:50:56;2.60;59.43
71396;DHT22;59888;55.814;37.132;2022-11-20T07:53:23;2.56;59.70
71396;DHT22;59888;55.814;37.132;2022-11-20T07:55:49;2.70;59.69
71396;DHT22;59888;55.814;37.132;2022-11-20T07:58:18;2.79;59.50
71396;DHT22;59888;55.814;37.132;2022-11-20T08:00:45;2.82;59.49
71396;DHT22;59888;55.814;37.132;2022-11-20T08:03:10;2.91;59.44
71396;DHT22;59888;55.814;37.132;2022-11-20T08:05:36;3.05;59.28
71396;DHT22;59888;55.814;37.132;2022-11-20T08:08:02;3.12;58.96
71396;DHT22;59888;55.814;37.132;2022-11-20T08:10:28;3.06;58.97
71396;DHT22;59888;55.814;37.132;2022-11-20T08:12:54;3.09;59.01
71396;DHT22;59888;55.814;37.132;2022-11-20T08:15:39;3.11;59.03
71396;DHT22;59888;55.814;37.132;2022-11-20T08:18:11;3.14;58.83
71396;DHT22;59888;55.814;37.132;2022-11-20T08:20:37;3.11;58.86
71396;DHT22;59888;55.814;37.132;2022-11-20T08:23:05;3.08;58.74
71396;DHT22;59888;55.814;37.132;2022-11-20T08:25:32;3.02;58.87
71396;DHT22;59888;55.814;37.132;2022-11-20T08:28:00;3.10;58.89
71396;DHT22;59888;55.814;37.132;2022-11-20T08:30:26;3.20;58.74
71396;DHT22;59888;55.814;37.132;2022-11-20T08:32:53;3.20;58.67
71396;DHT22;59888;55.814;37.132;2022-11-20T08:35:20;3.21;58.67
71396;DHT22;59888;55.814;37.132;2022-11-20T08:37:47;3.11;58.67
71396;DHT22;59888;55.814;37.132;2022-11-20T08:40:13;3.10;58.80
71396;DHT22;59888;55.814;37.132;2022-11-20T08:42:49;3.08;58.70
71396;DHT22;59888;55.814;37.132;2022-11-20T08:45:16;3.09;58.80
71396;DHT22;59888;55.814;37.132;2022-11-20T08:47:43;3.10;58.80
71396;DHT22;59888;55.814;37.132;2022-11-20T08:50:14;3.03;58.80
71396;DHT22;59888;55.814;37.132;2022-11-20T08:52:40;3.01;59.03
71396;DHT22;59888;55.814;37.132;2022-11-20T08:55:07;3.04;59.08
71396;DHT22;59888;55.814;37.132;2022-11-20T08:57:37;3.05;59.06
71396;DHT22;59888;55.814;37.132;2022-11-20T09:00:05;3.08;59.05
71396;DHT22;59888;55.814;37.132;2022-11-20T09:02:31;3.06;59.05
71396;DHT22;59888;55.814;37.132;2022-11-20T09:05:07;2.97;59.13
71396;DHT22;59888;55.814;37.132;2022-11-20T09:07:33;2.91;59.32
71396;DHT22;59888;55.814;37.132;2022-11-20T09:09:59;2.96;59.32
71396;DHT22;59888;55.814;37.132;2022-11-20T09:12:25;2.81;59.21
71396;DHT22;59888;55.814;37.132;2022-11-20T09:14:51;2.51;59.70
71396;DHT22;59888;55.814;37.132;2022-11-20T09:17:17;2.40;60.04
71396;DHT22;59888;55.814;37.132;2022-11-20T09:19:43;2.32;60.35
71396;DHT22;59888;55.814;37.132;2022-11-20T09:22:09;2.34;60.41
71396;DHT22;59888;55.814;37.132;2022-11-20T09:24:35;2.23;60.64
71396;DHT22;59888;55.814;37.132;2022-11-20T09:27:04;2.25;60.69
71396;DHT22;59888;55.814;37.132;2022-11-20T09:29:30;2.28;60.78
71396;DHT22;59888;55.814;37.132;2022-11-20T09:31:56;2.15;60.92
71396;DHT22;59888;55.814;37.132;2022-11-20T09:34:22;2.01;61.09
71396;DHT22;59888;55.814;37.132;2022-11-20T09:36:48;2.01;61.46
71396;DHT22;59888;55.814;37.132;2022-11-20T09:39:13;2.12;61.38
71396;DHT22;59888;55.814;37.132;2022-11-20T09:50:20;2.00;61.65
71396;DHT22;59888;55.814;37.132;2022-11-20T09:55:41;2.09;61.78
71396;DHT22;59888;55.814;37.132;2022-11-20T09:58:16;2.02;61.73
71396;DHT22;59888;55.814;37.132;2022-11-20T10:00:46;1.96;61.76
71396;DHT22;59888;55.814;37.132;2022-11-20T10:06:37;1.61;63.07
71396;DHT22;59888;55.814;37.132;2022-11-20T10:09:15;1.50;63.08
71396;DHT22;59888;55.814;37.132;2022-11-20T10:14:58;1.42;63.47
71396;DHT22;59888;55.814;37.132;2022-11-20T10:31:09;1.39;63.26
71396;DHT22;59888;55.814;37.132;2022-11-20T10:33:39;1.39;62.99
71396;DHT22;59888;55.814;37.132;2022-11-20T10:36:25;1.31;63.11
71396;DHT22;59888;55.814;37.132;2022-11-20T10:38:54;1.29;63.11
71396;DHT22;59888;55.814;37.132;2022-11-20T10:41:37;1.32;63.27
71396;DHT22;59888;55.814;37.132;2022-11-20T10:44:11;1.35;63.24
71396;DHT22;59888;55.814;37.132;2022-11-20T10:46:59;1.25;63.39
71396;DHT22;59888;55.814;37.132;2022-11-20T10:49:25;1.27;63.13
71396;DHT22;59888;55.814;37.132;2022-11-20T10:57:51;1.23;63.05
71396;DHT22;59888;55.814;37.132;2022-11-20T11:00:17;1.25;62.86
71396;DHT22;59888;55.814;37.132;2022-11-20T11:02:49;1.39;62.67
71396;DHT22;59888;55.814;37.132;2022-11-20T11:07:55;1.39;62.01
71396;DHT22;59888;55.814;37.132;2022-11-20T11:10:28;1.34;62.07
71396;DHT22;59888;55.814;37.132;2022-11-20T11:12:56;1.26;61.89
71396;DHT22;59888;55.814;37.132;2022-11-20T11:15:47;1.14;61.74
71396;DHT22;59888;55.814;37.132;2022-11-20T11:18:32;1.09;61.53
71396;DHT22;59888;55.814;37.132;2022-11-20T11:21:04;1.08;61.71
71396;DHT22;59888;55.814;37.132;2022-11-20T11:26:00;1.08;61.72
71396;DHT22;59888;55.814;37.132;2022-11-20T11:28:27;1.12;61.73
71396;DHT22;59888;55.814;37.132;2022-11-20T11:30:55;0.99;61.02
71396;DHT22;59888;55.814;37.132;2022-11-20T11:35:53;1.01;61.38
71396;DHT22;59888;55.814;37.132;2022-11-20T11:38:34;0.99;61.50
71396;DHT22;59888;55.814;37.132;2022-11-20T11:41:01;1.04;61.22
71396;DHT22;59888;55.814;37.132;2022-11-20T11:43:33;1.01;61.00
71396;DHT22;59888;55.814;37.132;2022-11-20T11:49:01;0.93;60.93
71396;DHT22;59888;55.814;37.132;2022-11-20T11:51:38;0.91;60.56
71396;DHT22;59888;55.814;37.132;2022-11-20T11:54:17;0.89;60.76
71396;DHT22;59888;55.814;37.132;2022-11-20T11:56:45;0.82;60.62
71396;DHT22;59888;55.814;37.132;2022-11-20T11:59:22;0.71;60.50
71396;DHT22;59888;55.814;37.132;2022-11-20T12:01:55;0.68;60.79
71396;DHT22;59888;55.814;37.132;2022-11-20T12:04:43;0.64;60.67
71396;DHT22;59888;55.814;37.132;2022-11-20T12:09:57;0.62;60.83
71396;DHT22;59888;55.814;37.132;2022-11-20T12:12:36;0.58;60.93
71396;DHT22;59888;55.814;37.132;2022-11-20T12:15:11;0.51;60.69
71396;DHT22;59888;55.814;37.132;2022-11-20T12:17:37;0.42;60.94
71396;DHT22;59888;55.814;37.132;2022-11-20T12:20:11;0.42;61.09
71396;DHT22;59888;55.814;37.132;2022-11-20T12:22:58;0.39;61.25
71396;DHT22;59888;55.814;37.132;2022-11-20T12:25:31;0.44;61.43
71396;DHT22;59888;55.814;37.132;2022-11-20T12:30:27;0.23;61.51
71396;DHT22;59888;55.814;37.132;2022-11-20T12:38:56;0.29;61.71
71396;DHT22;59888;55.814;37.132;2022-11-20T12:48:11;0.25;61.08
71396;DHT22;59888;55.814;37.132;2022-11-20T12:53:27;0.19;61.50
71396;DHT22;59888;55.814;37.132;2022-11-20T13:07:36;0.18;61.86
71396;DHT22;59888;55.814;37.132;2022-11-20T13:10:02;0.17;61.88
71396;DHT22;59888;55.814;37.132;2022-11-20T13:12:36;0.20;61.86
71396;DHT22;59888;55.814;37.132;2022-11-20T13:18:21;0.22;61.97
71396;DHT22;59888;55.814;37.132;2022-11-20T13:20:47;0.27;61.83
71396;DHT22;59888;55.814;37.132;2022-11-20T13:23:23;0.31;61.67
71396;DHT22;59888;55.814;37.132;2022-11-20T13:25:50;0.21;61.58
71396;DHT22;59888;55.814;37.132;2022-11-20T13:30:52;0.17;61.87
71396;DHT22;59888;55.814;37.132;2022-11-20T13:36:06;0.12;61.80
71396;DHT22;59888;55.814;37.132;2022-11-20T13:38:50;0.15;62.04
71396;DHT22;59888;55.814;37.132;2022-11-20T13:41:35;0.20;62.03
71396;DHT22;59888;55.814;37.132;2022-11-20T13:46:39;0.24;61.96
71396;DHT22;59888;55.814;37.132;2022-11-20T13:49:16;0.35;61.94
71396;DHT22;59888;55.814;37.132;2022-11-20T13:51:48;0.43;61.66
71396;DHT22;59888;55.814;37.132;2022-11-20T14:00:25;0.24;61.53
71396;DHT22;59888;55.814;37.132;2022-11-20T14:06:11;0.14;61.73
71396;DHT22;59888;55.814;37.132;2022-11-20T14:08:42;0.10;61.70
71396;DHT22;59888;55.814;37.132;2022-11-20T14:11:21;0.21;61.81
71396;DHT22;59888;55.814;37.132;2022-11-20T14:16:27;0.36;61.44
71396;DHT22;59888;55.814;37.132;2022-11-20T14:18:54;0.30;61.41
71396;DHT22;59888;55.814;37.132;2022-11-20T14:21:28;0.33;61.39
71396;DHT22;59888;55.814;37.132;2022-11-20T14:24:03;0.40;61.21
71396;DHT22;59888;55.814;37.132;2022-11-20T14:26:29;0.47;60.99
71396;DHT22;59888;55.814;37.132;2022-11-20T14:28:55;0.47;60.95
71396;DHT22;59888;55.814;37.132;2022-11-20T14:31:24;0.46;60.85
71396;DHT22;59888;55.814;37.132;2022-11-20T14:33:52;0.48;60.68
71396;DHT22;59888;55.814;37.132;2022-11-20T14:36:21;0.50;60.82
71396;DHT22;59888;55.814;37.132;2022-11-20T14:38:48;0.55;60.73
71396;DHT22;59888;55.814;37.132;2022-11-20T14:41:22;0.60;60.54
71396;DHT22;59888;55.814;37.132;2022-11-20T14:43:57;0.69;60.56
71396;DHT22;59888;55.814;37.132;2022-11-20T14:46:24;0.78;60.25
71396;DHT22;59888;55.814;37.132;2022-11-20T14:48:53;0.73;60.15
71396;DHT22;59888;55.814;37.132;2022-11-20T14:51:34;0.66;60.20
71396;DHT22;59888;55.814;37.132;2022-11-20T14:54:18;0.60;60.29
71396;DHT22;59888;55.814;37.132;2022-11-20T14:56:59;0.58;60.22
71396;DHT22;59888;55.814;37.132;2022-11-20T14:59:34;0.63;60.30
71396;DHT22;59888;55.814;37.132;2022-11-20T15:02:03;0.73;60.38
71396;DHT22;59888;55.814;37.132;2022-11-20T15:04:30;0.76;59.74
71396;DHT22;59888;55.814;37.132;2022-11-20T15:06:58;0.64;59.97
71396;DHT22;59888;55.814;37.132;2022-11-20T15:09:24;0.53;60.15
71396;DHT22;59888;55.814;37.132;2022-11-20T15:12:01;0.46;60.30
71396;DHT22;59888;55.814;37.132;2022-11-20T15:14:30;0.52;60.51
71396;DHT22;59888;55.814;37.132;2022-11-20T15:16:58;0.59;60.45
71396;DHT22;59888;55.814;37.132;2022-11-20T15:19:25;0.65;60.32
71396;DHT22;59888;55.814;37.132;2022-11-20T15:21:52;0.66;60.18
71396;DHT22;59888;55.814;37.132;2022-11-20T15:24:18;0.55;60.13
71396;DHT22;59888;55.814;37.132;2022-11-20T15:26:44;0.48;60.07
71396;DHT22;59888;55.814;37.132;2022-11-20T15:29:12;0.40;60.16
71396;DHT22;59888;55.814;37.132;2022-11-20T15:31:39;0.33;60.43
71396;DHT22;59888;55.814;37.132;2022-11-20T15:34:14;0.29;60.67
71396;DHT22;59888;55.814;37.132;2022-11-20T15:36:41;0.38;60.67
71396;DHT22;59888;55.814;37.132;2022-11-20T15:39:08;0.48;60.60
71396;DHT22;59888;55.814;37.132;2022-11-20T15:41:35;0.47;60.33
71396;DHT22;59888;55.814;37.132;2022-11-20T15:44:02;0.46;60.49
71396;DHT22;59888;55.814;37.132;2022-11-20T15:46:30;0.49;60.18
71396;DHT22;59888;55.814;37.132;2022-11-20T15:48:59;0.51;60.39
71396;DHT22;59888;55.814;37.132;2022-11-20T15:51:32;0.54;60.29
71396;DHT22;59888;55.814;37.132;2022-11-20T15:53:59;0.49;60.28
71396;DHT22;59888;55.814;37.132;2022-11-20T15:56:32;0.48;60.22
71396;DHT22;59888;55.814;37.132;2022-11-20T15:58:58;0.42;60.15
71396;DHT22;59888;55.814;37.132;2022-11-20T16:01:24;0.37;60.46
71396;DHT22;59888;55.814;37.132;2022-11-20T16:03:50;0.40;60.35
71396;DHT22;59888;55.814;37.132;2022-11-20T16:06:16;0.39;60.44
71396;DHT22;59888;55.814;37.132;2022-11-20T16:08:47;0.40;60.41
71396;DHT22;59888;55.814;37.132;2022-11-20T16:11:16;0.44;60.32
71396;DHT22;59888;55.814;37.132;2022-11-20T16:13:42;0.44;60.36
71396;DHT22;59888;55.814;37.132;2022-11-20T16:16:32;0.49;60.41
71396;DHT22;59888;55.814;37.132;2022-11-20T16:18:59;0.60;60.38
71396;DHT22;59888;55.814;37.132;2022-11-20T16:21:26;0.67;60.19
71396;DHT22;59888;55.814;37.132;2022-11-20T16:23:59;0.68;60.16
71396;DHT22;59888;55.814;37.132;2022-11-20T16:26:25;0.74;60.09
71396;DHT22;59888;55.814;37.132;2022-11-20T16:28:51;0.75;60.00
71396;DHT22;59888;55.814;37.132;2022-11-20T16:31:18;0.73;59.80
71396;DHT22;59888;55.814;37.132;2022-11-20T16:33:52;0.71;59.90
71396;DHT22;59888;55.814;37.132;2022-11-20T16:36:19;0.65;59.91
71396;DHT22;59888;55.814;37.132;2022-11-20T16:38:45;0.69;59.93
71396;DHT22;59888;55.814;37.132;2022-11-20T16:41:11;0.75;59.78
71396;DHT22;59888;55.814;37.132;2022-11-20T16:43:48;0.77;59.78
71396;DHT22;59888;55.814;37.132;2022-11-20T16:46:15;0.75;59.83
71396;DHT22;59888;55.814;37.132;2022-11-20T16:48:40;0.65;59.64
71396;DHT22;59888;55.814;37.132;2022-11-20T16:51:11;0.50;59.80
71396;DHT22;59888;55.814;37.132;2022-11-20T16:53:38;0.38;59.76
71396;DHT22;59888;55.814;37.132;2022-11-20T16:56:16;0.35;60.18
71396;DHT22;59888;55.814;37.132;2022-11-20T16:58:43;0.40;60.35
71396;DHT22;59888;55.814;37.132;2022-11-20T17:01:11;0.52;60.30
71396;DHT22;59888;55.814;37.132;2022-11-20T17:03:42;0.63;60.25
71396;DHT22;59888;55.814;37.132;2022-11-20T17:06:17;0.78;59.99
71396;DHT22;59888;55.814;37.132;2022-11-20T17:08:44;0.87;59.73
71396;DHT22;59888;55.814;37.132;2022-11-20T17:11:12;0.93;59.67
71396;DHT22;59888;55.814;37.132;2022-11-20T17:13:38;0.93;59.54
71396;DHT22;59888;55.814;37.132;2022-11-20T17:16:06;0.96;59.51
71396;DHT22;59888;55.814;37.132;2022-11-20T17:18:33;0.97;59.41
71396;DHT22;59888;55.814;37.132;2022-11-20T17:21:00;1.03;59.36
71396;DHT22;59888;55.814;37.132;2022-11-20T17:23:40;1.04;59.25
71396;DHT22;59888;55.814;37.132;2022-11-20T17:26:15;1.13;59.22
71396;DHT22;59888;55.814;37.132;2022-11-20T17:28:45;1.05;59.11
71396;DHT22;59888;55.814;37.132;2022-11-20T17:31:14;0.94;59.25